sensor_id;sensor_type;location;lat;lon;timestamp;P1;durP1;ratioP1;P2;durP2;ratioP2
68484;SDS011;55472;50.060;21.960;2023-02-11T00:00:13;35.30;;;11.25;;
68484;SDS011;55472;50.060;21.960;2023-02-11T00:03:00;37.20;;;12.13;;
68484;SDS011;55472;50.060;21.960;2023-02-11T00:05:26;36.00;;;12.32;;
68484;SDS011;55472;50.060;21.960;2023-02-11T00:07:52;37.20;;;12.10;;
68484;SDS011;55472;50.060;21.960;2023-02-11T00:10:18;36.67;;;12.82;;
68484;SDS011;55472;50.060;21.960;2023-02-11T00:12:45;37.05;;;12.45;;
68484;SDS011;55472;50.060;21.960;2023-02-11T00:15:11;30.47;;;10.67;;
68484;SDS011;55472;50.060;21.960;2023-02-11T00:17:37;31.80;;;11.38;;
68484;SDS011;55472;50.060;21.960;2023-02-11T00:20:03;36.58;;;13.07;;
68484;SDS011;55472;50.060;21.960;2023-02-11T00:22:30;35.28;;;11.70;;
68484;SDS011;55472;50.060;21.960;2023-02-11T00:24:56;40.63;;;13.13;;
68484;SDS011;55472;50.060;21.960;2023-02-11T00:27:23;31.40;;;11.20;;
68484;SDS011;55472;50.060;21.960;2023-02-11T00:29:49;36.10;;;12.13;;
68484;SDS011;55472;50.060;21.960;2023-02-11T00:32:16;28.30;;;10.45;;
68484;SDS011;55472;50.060;21.960;2023-02-11T00:34:42;30.52;;;11.15;;
68484;SDS011;55472;50.060;21.960;2023-02-11T00:37:08;33.17;;;11.40;;
68484;SDS011;55472;50.060;21.960;2023-02-11T00:39:36;29.63;;;11.63;;
68484;SDS011;55472;50.060;21.960;2023-02-11T00:42:02;27.75;;;10.05;;
68484;SDS011;55472;50.060;21.960;2023-02-11T00:44:29;34.63;;;11.63;;
68484;SDS011;55472;50.060;21.960;2023-02-11T00:46:55;29.45;;;11.05;;
68484;SDS011;55472;50.060;21.960;2023-02-11T00:49:21;30.05;;;11.30;;
68484;SDS011;55472;50.060;21.960;2023-02-11T00:51:47;33.77;;;10.67;;
68484;SDS011;55472;50.060;21.960;2023-02-11T00:54:13;35.85;;;11.18;;
68484;SDS011;55472;50.060;21.960;2023-02-11T00:56:40;32.20;;;11.52;;
68484;SDS011;55472;50.060;21.960;2023-02-11T00:59:06;30.73;;;10.40;;
68484;SDS011;55472;50.060;21.960;2023-02-11T01:01:32;31.45;;;11.35;;
68484;SDS011;55472;50.060;21.960;2023-02-11T01:03:58;31.10;;;10.83;;
68484;SDS011;55472;50.060;21.960;2023-02-11T01:06:25;34.22;;;11.23;;
68484;SDS011;55472;50.060;21.960;2023-02-11T01:08:51;33.75;;;12.75;;
68484;SDS011;55472;50.060;21.960;2023-02-11T01:11:18;35.55;;;11.48;;
68484;SDS011;55472;50.060;21.960;2023-02-11T01:13:46;27.70;;;10.45;;
68484;SDS011;55472;50.060;21.960;2023-02-11T01:16:14;33.17;;;12.13;;
68484;SDS011;55472;50.060;21.960;2023-02-11T01:18:42;28.40;;;9.77;;
68484;SDS011;55472;50.060;21.960;2023-02-11T01:21:09;26.42;;;10.00;;
68484;SDS011;55472;50.060;21.960;2023-02-11T01:23:35;26.02;;;8.52;;
68484;SDS011;55472;50.060;21.960;2023-02-11T01:26:01;28.63;;;10.45;;
68484;SDS011;55472;50.060;21.960;2023-02-11T01:28:28;27.17;;;10.43;;
68484;SDS011;55472;50.060;21.960;2023-02-11T01:30:56;25.42;;;9.07;;
68484;SDS011;55472;50.060;21.960;2023-02-11T01:33:22;34.00;;;11.80;;
68484;SDS011;55472;50.060;21.960;2023-02-11T01:35:49;29.58;;;10.50;;
68484;SDS011;55472;50.060;21.960;2023-02-11T01:38:17;31.60;;;11.65;;
68484;SDS011;55472;50.060;21.960;2023-02-11T01:40:51;34.33;;;10.23;;
68484;SDS011;55472;50.060;21.960;2023-02-11T01:43:27;28.08;;;9.93;;
68484;SDS011;55472;50.060;21.960;2023-02-11T01:48:31;32.30;;;10.13;;
68484;SDS011;55472;50.060;21.960;2023-02-11T01:51:07;30.95;;;10.55;;
68484;SDS011;55472;50.060;21.960;2023-02-11T01:53:41;27.90;;;10.23;;
68484;SDS011;55472;50.060;21.960;2023-02-11T01:56:28;30.83;;;10.02;;
68484;SDS011;55472;50.060;21.960;2023-02-11T01:59:19;28.63;;;10.60;;
68484;SDS011;55472;50.060;21.960;2023-02-11T02:01:57;25.23;;;9.25;;
68484;SDS011;55472;50.060;21.960;2023-02-11T02:04:37;32.65;;;11.07;;
68484;SDS011;55472;50.060;21.960;2023-02-11T02:07:13;27.27;;;9.90;;
68484;SDS011;55472;50.060;21.960;2023-02-11T02:09:51;26.65;;;10.00;;
68484;SDS011;55472;50.060;21.960;2023-02-11T02:12:26;32.67;;;11.07;;
68484;SDS011;55472;50.060;21.960;2023-02-11T02:15:07;36.28;;;12.15;;
68484;SDS011;55472;50.060;21.960;2023-02-11T02:27:18;29.58;;;10.38;;
68484;SDS011;55472;50.060;21.960;2023-02-11T02:33:23;30.05;;;10.45;;
68484;SDS011;55472;50.060;21.960;2023-02-11T02:38:38;29.05;;;9.88;;
68484;SDS011;55472;50.060;21.960;2023-02-11T02:41:32;27.50;;;10.43;;
68484;SDS011;55472;50.060;21.960;2023-02-11T02:44:00;33.60;;;11.02;;
68484;SDS011;55472;50.060;21.960;2023-02-11T02:46:28;29.80;;;10.73;;
68484;SDS011;55472;50.060;21.960;2023-02-11T02:48:58;27.70;;;8.90;;
68484;SDS011;55472;50.060;21.960;2023-02-11T02:51:36;29.48;;;11.15;;
68484;SDS011;55472;50.060;21.960;2023-02-11T03:12:34;26.55;;;8.73;;
68484;SDS011;55472;50.060;21.960;2023-02-11T03:15:04;25.30;;;9.45;;
68484;SDS011;55472;50.060;21.960;2023-02-11T03:17:32;36.17;;;12.63;;
68484;SDS011;55472;50.060;21.960;2023-02-11T03:20:01;34.28;;;12.10;;
68484;SDS011;55472;50.060;21.960;2023-02-11T03:22:37;31.63;;;10.90;;
68484;SDS011;55472;50.060;21.960;2023-02-11T03:25:12;29.20;;;9.85;;
68484;SDS011;55472;50.060;21.960;2023-02-11T03:30:20;32.93;;;9.80;;
68484;SDS011;55472;50.060;21.960;2023-02-11T03:32:55;27.70;;;10.13;;
68484;SDS011;55472;50.060;21.960;2023-02-11T03:35:44;33.50;;;10.75;;
68484;SDS011;55472;50.060;21.960;2023-02-11T03:38:42;36.42;;;11.80;;
68484;SDS011;55472;50.060;21.960;2023-02-11T03:41:14;28.55;;;10.60;;
68484;SDS011;55472;50.060;21.960;2023-02-11T03:43:46;26.93;;;9.57;;
68484;SDS011;55472;50.060;21.960;2023-02-11T03:46:17;31.25;;;11.20;;
68484;SDS011;55472;50.060;21.960;2023-02-11T03:48:52;36.15;;;11.15;;
68484;SDS011;55472;50.060;21.960;2023-02-11T03:51:25;36.80;;;11.48;;
68484;SDS011;55472;50.060;21.960;2023-02-11T03:53:54;34.33;;;9.73;;
68484;SDS011;55472;50.060;21.960;2023-02-11T03:56:23;33.30;;;12.33;;
68484;SDS011;55472;50.060;21.960;2023-02-11T03:58:54;29.33;;;11.10;;
68484;SDS011;55472;50.060;21.960;2023-02-11T04:01:20;25.13;;;9.63;;
68484;SDS011;55472;50.060;21.960;2023-02-11T04:03:47;25.67;;;9.82;;
68484;SDS011;55472;50.060;21.960;2023-02-11T04:06:13;32.40;;;10.57;;
68484;SDS011;55472;50.060;21.960;2023-02-11T04:08:39;33.43;;;12.00;;
68484;SDS011;55472;50.060;21.960;2023-02-11T04:11:05;27.25;;;9.05;;
68484;SDS011;55472;50.060;21.960;2023-02-11T04:13:32;26.60;;;10.18;;
68484;SDS011;55472;50.060;21.960;2023-02-11T04:15:58;29.88;;;11.38;;
68484;SDS011;55472;50.060;21.960;2023-02-11T04:18:24;24.45;;;8.93;;
68484;SDS011;55472;50.060;21.960;2023-02-11T04:20:50;28.33;;;10.10;;
68484;SDS011;55472;50.060;21.960;2023-02-11T04:23:16;31.95;;;10.60;;
68484;SDS011;55472;50.060;21.960;2023-02-11T04:25:43;32.50;;;10.90;;
68484;SDS011;55472;50.060;21.960;2023-02-11T04:28:09;36.22;;;10.90;;
68484;SDS011;55472;50.060;21.960;2023-02-11T04:30:35;30.42;;;10.63;;
68484;SDS011;55472;50.060;21.960;2023-02-11T04:33:01;33.10;;;11.93;;
68484;SDS011;55472;50.060;21.960;2023-02-11T04:35:27;28.25;;;10.27;;
68484;SDS011;55472;50.060;21.960;2023-02-11T04:37:53;31.02;;;11.27;;
68484;SDS011;55472;50.060;21.960;2023-02-11T04:40:20;34.85;;;11.10;;
68484;SDS011;55472;50.060;21.960;2023-02-11T04:42:46;29.52;;;10.88;;
68484;SDS011;55472;50.060;21.960;2023-02-11T04:45:12;26.60;;;8.90;;
68484;SDS011;55472;50.060;21.960;2023-02-11T04:47:38;27.48;;;9.68;;
68484;SDS011;55472;50.060;21.960;2023-02-11T04:50:05;30.95;;;10.63;;
68484;SDS011;55472;50.060;21.960;2023-02-11T04:52:31;33.72;;;11.20;;
68484;SDS011;55472;50.060;21.960;2023-02-11T04:54:57;31.80;;;10.93;;
68484;SDS011;55472;50.060;21.960;2023-02-11T04:57:23;22.60;;;8.60;;
68484;SDS011;55472;50.060;21.960;2023-02-11T04:59:49;31.55;;;10.23;;
68484;SDS011;55472;50.060;21.960;2023-02-11T05:02:15;23.23;;;10.15;;
68484;SDS011;55472;50.060;21.960;2023-02-11T05:04:42;34.78;;;10.52;;
68484;SDS011;55472;50.060;21.960;2023-02-11T05:07:08;32.00;;;10.55;;
68484;SDS011;55472;50.060;21.960;2023-02-11T05:09:34;29.37;;;10.63;;
68484;SDS011;55472;50.060;21.960;2023-02-11T05:12:00;26.73;;;10.10;;
68484;SDS011;55472;50.060;21.960;2023-02-11T05:14:26;36.92;;;12.05;;
68484;SDS011;55472;50.060;21.960;2023-02-11T05:16:52;33.33;;;11.85;;
68484;SDS011;55472;50.060;21.960;2023-02-11T05:19:19;39.75;;;11.43;;
68484;SDS011;55472;50.060;21.960;2023-02-11T05:21:45;30.93;;;10.13;;
68484;SDS011;55472;50.060;21.960;2023-02-11T05:24:11;25.52;;;9.35;;
68484;SDS011;55472;50.060;21.960;2023-02-11T05:26:37;25.67;;;10.15;;
68484;SDS011;55472;50.060;21.960;2023-02-11T05:29:04;32.25;;;9.35;;
68484;SDS011;55472;50.060;21.960;2023-02-11T05:31:30;30.48;;;11.13;;
68484;SDS011;55472;50.060;21.960;2023-02-11T05:33:57;30.10;;;11.27;;
68484;SDS011;55472;50.060;21.960;2023-02-11T05:36:23;29.88;;;9.05;;
68484;SDS011;55472;50.060;21.960;2023-02-11T05:38:49;34.15;;;11.20;;
68484;SDS011;55472;50.060;21.960;2023-02-11T05:41:15;29.75;;;9.57;;
68484;SDS011;55472;50.060;21.960;2023-02-11T05:43:42;35.00;;;11.35;;
68484;SDS011;55472;50.060;21.960;2023-02-11T05:46:08;28.00;;;10.53;;
68484;SDS011;55472;50.060;21.960;2023-02-11T05:48:34;28.23;;;10.95;;
68484;SDS011;55472;50.060;21.960;2023-02-11T05:51:00;32.85;;;10.82;;
68484;SDS011;55472;50.060;21.960;2023-02-11T05:53:27;33.28;;;11.32;;
68484;SDS011;55472;50.060;21.960;2023-02-11T05:55:53;31.42;;;10.90;;
68484;SDS011;55472;50.060;21.960;2023-02-11T05:58:19;36.57;;;12.03;;
68484;SDS011;55472;50.060;21.960;2023-02-11T06:00:45;36.70;;;12.32;;
68484;SDS011;55472;50.060;21.960;2023-02-11T06:03:11;39.92;;;12.00;;
68484;SDS011;55472;50.060;21.960;2023-02-11T06:05:37;33.00;;;10.90;;
68484;SDS011;55472;50.060;21.960;2023-02-11T06:08:04;30.77;;;10.13;;
68484;SDS011;55472;50.060;21.960;2023-02-11T06:10:30;32.53;;;11.70;;
68484;SDS011;55472;50.060;21.960;2023-02-11T06:12:56;28.88;;;10.55;;
68484;SDS011;55472;50.060;21.960;2023-02-11T06:15:22;28.58;;;10.48;;
68484;SDS011;55472;50.060;21.960;2023-02-11T06:17:49;35.00;;;13.10;;
68484;SDS011;55472;50.060;21.960;2023-02-11T06:20:15;32.85;;;11.80;;
68484;SDS011;55472;50.060;21.960;2023-02-11T06:22:41;26.83;;;9.67;;
68484;SDS011;55472;50.060;21.960;2023-02-11T06:25:07;34.58;;;11.85;;
68484;SDS011;55472;50.060;21.960;2023-02-11T06:27:35;29.63;;;10.25;;
68484;SDS011;55472;50.060;21.960;2023-02-11T06:30:03;29.77;;;10.38;;
68484;SDS011;55472;50.060;21.960;2023-02-11T06:32:31;28.80;;;10.23;;
68484;SDS011;55472;50.060;21.960;2023-02-11T06:34:58;30.67;;;11.30;;
68484;SDS011;55472;50.060;21.960;2023-02-11T06:37:25;22.63;;;9.10;;
68484;SDS011;55472;50.060;21.960;2023-02-11T06:39:51;25.08;;;9.43;;
68484;SDS011;55472;50.060;21.960;2023-02-11T06:42:17;27.58;;;9.80;;
68484;SDS011;55472;50.060;21.960;2023-02-11T06:44:43;33.97;;;11.77;;
68484;SDS011;55472;50.060;21.960;2023-02-11T06:47:09;29.07;;;10.77;;
68484;SDS011;55472;50.060;21.960;2023-02-11T06:49:35;33.60;;;12.30;;
68484;SDS011;55472;50.060;21.960;2023-02-11T06:52:02;37.45;;;13.15;;
68484;SDS011;55472;50.060;21.960;2023-02-11T06:54:28;31.00;;;12.30;;
68484;SDS011;55472;50.060;21.960;2023-02-11T06:56:54;30.25;;;11.20;;
68484;SDS011;55472;50.060;21.960;2023-02-11T06:59:20;30.40;;;9.77;;
68484;SDS011;55472;50.060;21.960;2023-02-11T07:01:47;33.15;;;10.82;;
68484;SDS011;55472;50.060;21.960;2023-02-11T07:04:13;47.55;;;15.82;;
68484;SDS011;55472;50.060;21.960;2023-02-11T07:06:40;57.03;;;18.80;;
68484;SDS011;55472;50.060;21.960;2023-02-11T07:09:06;52.80;;;18.33;;
68484;SDS011;55472;50.060;21.960;2023-02-11T07:11:33;34.97;;;13.00;;
68484;SDS011;55472;50.060;21.960;2023-02-11T07:14:01;63.13;;;21.77;;
68484;SDS011;55472;50.060;21.960;2023-02-11T07:16:33;54.13;;;20.98;;
68484;SDS011;55472;50.060;21.960;2023-02-11T07:18:59;53.08;;;20.70;;
68484;SDS011;55472;50.060;21.960;2023-02-11T07:21:26;61.47;;;20.30;;
68484;SDS011;55472;50.060;21.960;2023-02-11T07:23:52;61.10;;;18.47;;
68484;SDS011;55472;50.060;21.960;2023-02-11T07:26:19;43.95;;;13.65;;
68484;SDS011;55472;50.060;21.960;2023-02-11T07:28:48;44.97;;;13.38;;
68484;SDS011;55472;50.060;21.960;2023-02-11T07:31:17;43.22;;;13.38;;
68484;SDS011;55472;50.060;21.960;2023-02-11T07:33:47;42.30;;;12.85;;
68484;SDS011;55472;50.060;21.960;2023-02-11T07:36:14;33.77;;;11.00;;
68484;SDS011;55472;50.060;21.960;2023-02-11T07:38:41;49.60;;;14.13;;
68484;SDS011;55472;50.060;21.960;2023-02-11T07:41:09;40.20;;;13.40;;
68484;SDS011;55472;50.060;21.960;2023-02-11T07:43:38;35.03;;;11.95;;
68484;SDS011;55472;50.060;21.960;2023-02-11T07:46:07;37.78;;;13.50;;
68484;SDS011;55472;50.060;21.960;2023-02-11T07:48:37;33.67;;;11.23;;
68484;SDS011;55472;50.060;21.960;2023-02-11T07:51:26;40.15;;;13.07;;
68484;SDS011;55472;50.060;21.960;2023-02-11T07:53:55;29.60;;;11.15;;
68484;SDS011;55472;50.060;21.960;2023-02-11T07:56:24;27.08;;;8.60;;
68484;SDS011;55472;50.060;21.960;2023-02-11T07:58:51;36.30;;;11.70;;
68484;SDS011;55472;50.060;21.960;2023-02-11T08:01:20;31.13;;;11.93;;
68484;SDS011;55472;50.060;21.960;2023-02-11T08:03:49;34.33;;;12.13;;
68484;SDS011;55472;50.060;21.960;2023-02-11T08:06:17;32.75;;;11.35;;
68484;SDS011;55472;50.060;21.960;2023-02-11T08:08:45;37.33;;;11.88;;
68484;SDS011;55472;50.060;21.960;2023-02-11T08:11:15;39.80;;;13.52;;
68484;SDS011;55472;50.060;21.960;2023-02-11T08:13:45;17.37;;;6.73;;
68484;SDS011;55472;50.060;21.960;2023-02-11T08:18:55;37.65;;;12.07;;
68484;SDS011;55472;50.060;21.960;2023-02-11T08:21:24;30.23;;;10.05;;
68484;SDS011;55472;50.060;21.960;2023-02-11T08:23:51;34.83;;;11.88;;
68484;SDS011;55472;50.060;21.960;2023-02-11T08:26:19;32.07;;;11.63;;
68484;SDS011;55472;50.060;21.960;2023-02-11T08:28:48;37.65;;;13.93;;
68484;SDS011;55472;50.060;21.960;2023-02-11T08:31:18;31.80;;;12.23;;
68484;SDS011;55472;50.060;21.960;2023-02-11T08:33:52;25.20;;;8.85;;
68484;SDS011;55472;50.060;21.960;2023-02-11T08:36:23;31.90;;;12.57;;
68484;SDS011;55472;50.060;21.960;2023-02-11T08:38:55;33.90;;;13.50;;
68484;SDS011;55472;50.060;21.960;2023-02-11T08:41:28;30.30;;;11.07;;
68484;SDS011;55472;50.060;21.960;2023-02-11T08:43:54;31.90;;;11.65;;
68484;SDS011;55472;50.060;21.960;2023-02-11T08:46:20;35.00;;;11.32;;
68484;SDS011;55472;50.060;21.960;2023-02-11T08:48:47;32.30;;;11.30;;
68484;SDS011;55472;50.060;21.960;2023-02-11T08:51:14;27.83;;;9.87;;
68484;SDS011;55472;50.060;21.960;2023-02-11T08:53:49;36.78;;;13.30;;
68484;SDS011;55472;50.060;21.960;2023-02-11T08:56:17;37.88;;;12.48;;
68484;SDS011;55472;50.060;21.960;2023-02-11T08:58:44;32.13;;;10.75;;
68484;SDS011;55472;50.060;21.960;2023-02-11T09:01:16;35.05;;;12.60;;
68484;SDS011;55472;50.060;21.960;2023-02-11T09:03:47;37.43;;;12.03;;
68484;SDS011;55472;50.060;21.960;2023-02-11T09:06:13;28.77;;;10.82;;
68484;SDS011;55472;50.060;21.960;2023-02-11T09:08:42;35.42;;;12.52;;
68484;SDS011;55472;50.060;21.960;2023-02-11T09:11:12;27.02;;;10.38;;
68484;SDS011;55472;50.060;21.960;2023-02-11T09:13:39;34.42;;;12.13;;
68484;SDS011;55472;50.060;21.960;2023-02-11T09:16:07;34.50;;;12.53;;
68484;SDS011;55472;50.060;21.960;2023-02-11T09:18:41;37.00;;;13.13;;
68484;SDS011;55472;50.060;21.960;2023-02-11T09:21:08;35.47;;;13.25;;
68484;SDS011;55472;50.060;21.960;2023-02-11T09:23:34;38.42;;;13.45;;
68484;SDS011;55472;50.060;21.960;2023-02-11T09:26:08;31.58;;;12.00;;
68484;SDS011;55472;50.060;21.960;2023-02-11T09:28:37;40.97;;;13.87;;
68484;SDS011;55472;50.060;21.960;2023-02-11T09:31:08;33.13;;;13.05;;
68484;SDS011;55472;50.060;21.960;2023-02-11T09:33:37;34.55;;;12.88;;
68484;SDS011;55472;50.060;21.960;2023-02-11T09:36:06;40.78;;;14.05;;
68484;SDS011;55472;50.060;21.960;2023-02-11T09:38:33;36.42;;;14.23;;
68484;SDS011;55472;50.060;21.960;2023-02-11T09:40:59;37.23;;;14.37;;
68484;SDS011;55472;50.060;21.960;2023-02-11T09:43:40;39.33;;;14.75;;
68484;SDS011;55472;50.060;21.960;2023-02-11T09:46:12;35.05;;;14.38;;
68484;SDS011;55472;50.060;21.960;2023-02-11T09:48:41;41.10;;;15.52;;
68484;SDS011;55472;50.060;21.960;2023-02-11T09:51:15;38.60;;;14.60;;
68484;SDS011;55472;50.060;21.960;2023-02-11T09:53:50;30.70;;;12.57;;
68484;SDS011;55472;50.060;21.960;2023-02-11T09:56:22;41.42;;;15.05;;
68484;SDS011;55472;50.060;21.960;2023-02-11T09:58:49;42.58;;;14.93;;
68484;SDS011;55472;50.060;21.960;2023-02-11T10:03:59;41.15;;;16.63;;
68484;SDS011;55472;50.060;21.960;2023-02-11T10:07:06;33.80;;;12.37;;
68484;SDS011;55472;50.060;21.960;2023-02-11T10:09:55;37.00;;;12.95;;
68484;SDS011;55472;50.060;21.960;2023-02-11T10:18:14;36.53;;;12.82;;
68484;SDS011;55472;50.060;21.960;2023-02-11T10:20:47;36.53;;;12.43;;
68484;SDS011;55472;50.060;21.960;2023-02-11T10:23:39;39.28;;;13.38;;
68484;SDS011;55472;50.060;21.960;2023-02-11T10:26:17;45.97;;;14.70;;
68484;SDS011;55472;50.060;21.960;2023-02-11T10:28:48;41.72;;;13.65;;
68484;SDS011;55472;50.060;21.960;2023-02-11T10:36:32;37.50;;;13.38;;
68484;SDS011;55472;50.060;21.960;2023-02-11T10:39:24;40.13;;;13.02;;
68484;SDS011;55472;50.060;21.960;2023-02-11T10:44:26;34.13;;;12.20;;
68484;SDS011;55472;50.060;21.960;2023-02-11T10:47:01;37.93;;;13.33;;
68484;SDS011;55472;50.060;21.960;2023-02-11T10:49:49;32.50;;;11.48;;
68484;SDS011;55472;50.060;21.960;2023-02-11T10:52:23;42.53;;;12.98;;
68484;SDS011;55472;50.060;21.960;2023-02-11T10:57:36;30.98;;;12.43;;
68484;SDS011;55472;50.060;21.960;2023-02-11T11:00:21;35.13;;;12.67;;
68484;SDS011;55472;50.060;21.960;2023-02-11T11:02:53;35.13;;;12.85;;
68484;SDS011;55472;50.060;21.960;2023-02-11T11:05:35;41.00;;;14.43;;
68484;SDS011;55472;50.060;21.960;2023-02-11T11:08:11;37.28;;;12.40;;
68484;SDS011;55472;50.060;21.960;2023-02-11T11:18:42;39.60;;;13.52;;
68484;SDS011;55472;50.060;21.960;2023-02-11T11:23:39;38.88;;;12.35;;
68484;SDS011;55472;50.060;21.960;2023-02-11T11:26:15;41.80;;;13.77;;
68484;SDS011;55472;50.060;21.960;2023-02-11T11:31:35;39.17;;;13.52;;
68484;SDS011;55472;50.060;21.960;2023-02-11T11:36:58;24.27;;;9.80;;
68484;SDS011;55472;50.060;21.960;2023-02-11T11:39:34;35.83;;;13.27;;
68484;SDS011;55472;50.060;21.960;2023-02-11T11:42:02;52.70;;;16.27;;
68484;SDS011;55472;50.060;21.960;2023-02-11T11:45:00;39.35;;;14.77;;
68484;SDS011;55472;50.060;21.960;2023-02-11T11:47:52;44.35;;;17.45;;
68484;SDS011;55472;50.060;21.960;2023-02-11T11:58:36;32.20;;;10.90;;
68484;SDS011;55472;50.060;21.960;2023-02-11T12:12:00;37.17;;;12.13;;
68484;SDS011;55472;50.060;21.960;2023-02-11T12:35:59;44.70;;;14.80;;
68484;SDS011;55472;50.060;21.960;2023-02-11T12:38:57;48.75;;;17.75;;
68484;SDS011;55472;50.060;21.960;2023-02-11T12:56:05;44.70;;;13.73;;
68484;SDS011;55472;50.060;21.960;2023-02-11T12:58:43;41.58;;;14.55;;
68484;SDS011;55472;50.060;21.960;2023-02-11T13:01:14;45.35;;;16.05;;
68484;SDS011;55472;50.060;21.960;2023-02-11T13:03:53;50.20;;;16.87;;
68484;SDS011;55472;50.060;21.960;2023-02-11T13:06:44;46.55;;;17.70;;
68484;SDS011;55472;50.060;21.960;2023-02-11T13:09:21;46.25;;;16.65;;
68484;SDS011;55472;50.060;21.960;2023-02-11T13:11:58;52.75;;;17.83;;
68484;SDS011;55472;50.060;21.960;2023-02-11T13:14:47;43.72;;;15.20;;
68484;SDS011;55472;50.060;21.960;2023-02-11T13:17:21;38.83;;;13.73;;
68484;SDS011;55472;50.060;21.960;2023-02-11T13:19:59;41.35;;;15.38;;
68484;SDS011;55472;50.060;21.960;2023-02-11T13:22:48;40.55;;;13.75;;
68484;SDS011;55472;50.060;21.960;2023-02-11T13:25:35;45.38;;;15.35;;
68484;SDS011;55472;50.060;21.960;2023-02-11T13:28:24;28.30;;;11.55;;
68484;SDS011;55472;50.060;21.960;2023-02-11T13:31:00;44.73;;;15.60;;
68484;SDS011;55472;50.060;21.960;2023-02-11T13:33:32;44.55;;;14.88;;
68484;SDS011;55472;50.060;21.960;2023-02-11T13:38:30;46.13;;;14.77;;
68484;SDS011;55472;50.060;21.960;2023-02-11T13:41:14;42.85;;;14.15;;
68484;SDS011;55472;50.060;21.960;2023-02-11T13:43:56;46.17;;;15.60;;
68484;SDS011;55472;50.060;21.960;2023-02-11T13:46:25;41.10;;;14.30;;
68484;SDS011;55472;50.060;21.960;2023-02-11T13:48:54;50.90;;;14.60;;
68484;SDS011;55472;50.060;21.960;2023-02-11T13:51:38;72.30;;;19.02;;
68484;SDS011;55472;50.060;21.960;2023-02-11T13:54:07;54.03;;;17.02;;
68484;SDS011;55472;50.060;21.960;2023-02-11T13:57:13;51.73;;;17.43;;
68484;SDS011;55472;50.060;21.960;2023-02-11T14:00:48;53.00;;;16.08;;
68484;SDS011;55472;50.060;21.960;2023-02-11T14:09:32;53.47;;;18.55;;
68484;SDS011;55472;50.060;21.960;2023-02-11T14:12:37;51.47;;;17.83;;
68484;SDS011;55472;50.060;21.960;2023-02-11T14:17:44;49.78;;;17.42;;
68484;SDS011;55472;50.060;21.960;2023-02-11T14:23:22;45.42;;;14.55;;
68484;SDS011;55472;50.060;21.960;2023-02-11T14:25:53;47.37;;;16.83;;
68484;SDS011;55472;50.060;21.960;2023-02-11T14:28:29;45.83;;;15.93;;
68484;SDS011;55472;50.060;21.960;2023-02-11T14:31:02;49.20;;;18.15;;
68484;SDS011;55472;50.060;21.960;2023-02-11T14:42:02;41.55;;;15.38;;
68484;SDS011;55472;50.060;21.960;2023-02-11T14:44:29;52.33;;;18.55;;
68484;SDS011;55472;50.060;21.960;2023-02-11T14:46:57;57.20;;;18.45;;
68484;SDS011;55472;50.060;21.960;2023-02-11T14:49:31;54.00;;;18.83;;
68484;SDS011;55472;50.060;21.960;2023-02-11T14:52:07;49.33;;;19.53;;
68484;SDS011;55472;50.060;21.960;2023-02-11T14:55:08;54.20;;;20.73;;
68484;SDS011;55472;50.060;21.960;2023-02-11T15:01:00;51.65;;;18.80;;
68484;SDS011;55472;50.060;21.960;2023-02-11T15:03:34;59.92;;;20.02;;
68484;SDS011;55472;50.060;21.960;2023-02-11T15:08:46;57.75;;;19.13;;
68484;SDS011;55472;50.060;21.960;2023-02-11T15:11:17;51.72;;;16.83;;
68484;SDS011;55472;50.060;21.960;2023-02-11T15:13:46;57.80;;;19.95;;
68484;SDS011;55472;50.060;21.960;2023-02-11T15:16:14;58.35;;;19.13;;
68484;SDS011;55472;50.060;21.960;2023-02-11T15:18:47;64.00;;;20.30;;
68484;SDS011;55472;50.060;21.960;2023-02-11T15:21:24;45.22;;;17.88;;
68484;SDS011;55472;50.060;21.960;2023-02-11T15:23:55;56.92;;;21.23;;
68484;SDS011;55472;50.060;21.960;2023-02-11T15:26:43;53.97;;;20.35;;
68484;SDS011;55472;50.060;21.960;2023-02-11T15:29:14;52.88;;;19.63;;
68484;SDS011;55472;50.060;21.960;2023-02-11T15:31:41;52.63;;;19.30;;
68484;SDS011;55472;50.060;21.960;2023-02-11T15:34:07;51.05;;;18.38;;
68484;SDS011;55472;50.060;21.960;2023-02-11T15:36:34;65.43;;;21.90;;
68484;SDS011;55472;50.060;21.960;2023-02-11T15:39:36;55.63;;;20.35;;
68484;SDS011;55472;50.060;21.960;2023-02-11T15:50:36;59.25;;;20.08;;
68484;SDS011;55472;50.060;21.960;2023-02-11T15:53:26;58.33;;;20.00;;
68484;SDS011;55472;50.060;21.960;2023-02-11T15:56:02;53.20;;;17.85;;
68484;SDS011;55472;50.060;21.960;2023-02-11T15:58:45;59.43;;;20.33;;
68484;SDS011;55472;50.060;21.960;2023-02-11T16:01:13;56.35;;;20.35;;
68484;SDS011;55472;50.060;21.960;2023-02-11T16:03:41;56.25;;;20.27;;
68484;SDS011;55472;50.060;21.960;2023-02-11T16:11:31;63.97;;;21.83;;
68484;SDS011;55472;50.060;21.960;2023-02-11T16:14:00;50.63;;;18.05;;
68484;SDS011;55472;50.060;21.960;2023-02-11T16:16:45;58.58;;;20.98;;
68484;SDS011;55472;50.060;21.960;2023-02-11T16:19:17;61.50;;;22.27;;
68484;SDS011;55472;50.060;21.960;2023-02-11T16:21:44;55.67;;;19.23;;
68484;SDS011;55472;50.060;21.960;2023-02-11T16:24:16;52.13;;;18.73;;
68484;SDS011;55472;50.060;21.960;2023-02-11T16:26:48;52.13;;;17.98;;
68484;SDS011;55472;50.060;21.960;2023-02-11T16:29:17;49.42;;;16.65;;
68484;SDS011;55472;50.060;21.960;2023-02-11T16:31:50;50.03;;;19.55;;
68484;SDS011;55472;50.060;21.960;2023-02-11T16:34:20;64.13;;;21.30;;
68484;SDS011;55472;50.060;21.960;2023-02-11T16:36:47;59.87;;;21.60;;
68484;SDS011;55472;50.060;21.960;2023-02-11T16:39:17;59.25;;;20.35;;
68484;SDS011;55472;50.060;21.960;2023-02-11T16:41:47;70.57;;;23.85;;
68484;SDS011;55472;50.060;21.960;2023-02-11T16:44:16;69.05;;;23.23;;
68484;SDS011;55472;50.060;21.960;2023-02-11T16:46:42;75.32;;;24.15;;
68484;SDS011;55472;50.060;21.960;2023-02-11T16:49:17;72.10;;;23.13;;
68484;SDS011;55472;50.060;21.960;2023-02-11T16:51:54;100.03;;;33.72;;
68484;SDS011;55472;50.060;21.960;2023-02-11T16:54:28;92.63;;;31.27;;
68484;SDS011;55472;50.060;21.960;2023-02-11T16:56:55;67.93;;;23.73;;
68484;SDS011;55472;50.060;21.960;2023-02-11T16:59:22;76.10;;;23.65;;
68484;SDS011;55472;50.060;21.960;2023-02-11T17:01:48;56.60;;;19.63;;
68484;SDS011;55472;50.060;21.960;2023-02-11T17:04:19;54.65;;;19.38;;
68484;SDS011;55472;50.060;21.960;2023-02-11T17:06:53;64.78;;;21.42;;
68484;SDS011;55472;50.060;21.960;2023-02-11T17:09:21;63.85;;;20.15;;
68484;SDS011;55472;50.060;21.960;2023-02-11T17:11:50;67.05;;;23.90;;
68484;SDS011;55472;50.060;21.960;2023-02-11T17:14:17;103.63;;;29.47;;
68484;SDS011;55472;50.060;21.960;2023-02-11T17:16:44;101.00;;;30.60;;
68484;SDS011;55472;50.060;21.960;2023-02-11T17:19:13;73.97;;;26.08;;
68484;SDS011;55472;50.060;21.960;2023-02-11T17:21:42;98.53;;;30.88;;
68484;SDS011;55472;50.060;21.960;2023-02-11T17:24:10;90.95;;;29.42;;
68484;SDS011;55472;50.060;21.960;2023-02-11T17:26:38;88.23;;;26.90;;
68484;SDS011;55472;50.060;21.960;2023-02-11T17:29:06;89.07;;;27.08;;